createdAt,value
2022-11-10T00:01:21.692Z,51.87
2022-11-10T00:03:50.693Z,51.60
2022-11-10T00:06:19.382Z,51.38
2022-11-10T00:08:47.897Z,51.60
2022-11-10T00:11:16.457Z,51.53
2022-11-10T00:13:58.825Z,51.60
2022-11-10T00:16:45.984Z,51.61
2022-11-10T00:19:14.390Z,51.62
2022-11-10T00:21:42.769Z,51.59
2022-11-10T00:24:11.141Z,51.67
2022-11-10T00:26:39.529Z,51.33
2022-11-10T00:29:07.946Z,51.42
2022-11-10T00:31:39.260Z,51.34
2022-11-10T00:34:08.698Z,51.33
2022-11-10T00:36:37.198Z,51.36
2022-11-10T00:39:05.957Z,51.33
2022-11-10T00:41:34.606Z,51.35
2022-11-10T00:44:03.240Z,51.39
2022-11-10T00:46:31.816Z,51.34
2022-11-10T00:49:01.526Z,51.11
2022-11-10T00:51:31.499Z,51.31
2022-11-10T00:53:59.964Z,51.26
2022-11-10T00:56:28.468Z,50.98
2022-11-10T00:58:56.977Z,50.76
2022-11-10T01:01:27.014Z,50.64
2022-11-10T01:03:56.316Z,50.64
2022-11-10T01:06:26.080Z,50.82
2022-11-10T01:08:54.432Z,50.63
2022-11-10T01:11:25.866Z,50.63
2022-11-10T01:13:55.857Z,50.68
2022-11-10T01:16:27.513Z,50.68
2022-11-10T01:18:58.007Z,50.93
2022-11-10T01:21:30.130Z,51.21
2022-11-10T01:23:58.873Z,51.34
2022-11-10T01:26:27.568Z,51.44
2022-11-10T01:28:56.037Z,51.62
2022-11-10T01:31:24.573Z,51.64
2022-11-10T01:33:52.967Z,51.83
2022-11-10T01:36:21.328Z,51.86
2022-11-10T01:38:51.050Z,52.06
2022-11-10T01:41:19.450Z,52.03
2022-11-10T01:43:47.883Z,52.02
2022-11-10T01:46:16.713Z,52.01
2022-11-10T01:48:50.627Z,52.05
2022-11-10T01:51:21.846Z,51.83
2022-11-10T01:53:56.030Z,51.72
2022-11-10T01:56:25.641Z,51.89
2022-11-10T01:58:59.877Z,51.88
2022-11-10T02:01:28.309Z,51.92
2022-11-10T02:04:00.537Z,51.96
2022-11-10T02:06:34.966Z,51.88
2022-11-10T02:09:05.076Z,51.99
2022-11-10T02:11:34.581Z,52.15
2022-11-10T02:14:03.350Z,52.01
2022-11-10T02:16:32.541Z,51.95
2022-11-10T02:19:17.459Z,52.04
2022-11-10T02:21:47.441Z,52.02
2022-11-10T02:24:16.134Z,52.07
2022-11-10T02:26:49.758Z,52.15
2022-11-10T02:29:18.470Z,52.21
2022-11-10T02:31:46.882Z,52.06
2022-11-10T02:34:15.379Z,52.20
2022-11-10T02:36:43.761Z,52.06
2022-11-10T02:39:13.594Z,52.04
2022-11-10T02:41:41.931Z,52.06
2022-11-10T02:44:10.500Z,51.99
2022-11-10T02:46:38.880Z,51.96
2022-11-10T02:49:08.122Z,51.99
2022-11-10T02:51:36.483Z,52.02
2022-11-10T02:54:06.162Z,51.80
2022-11-10T02:56:36.423Z,51.88
2022-11-10T02:59:06.182Z,51.88
2022-11-10T03:01:34.647Z,51.82
2022-11-10T03:04:03.058Z,51.81
2022-11-10T03:06:31.479Z,51.89
2022-11-10T03:09:00.100Z,51.87
2022-11-10T03:11:32.248Z,51.78
2022-11-10T03:14:02.828Z,51.85
2022-11-10T03:16:31.747Z,51.87
2022-11-10T03:19:00.116Z,51.78
2022-11-10T03:21:28.466Z,51.76
2022-11-10T03:23:56.780Z,51.79
2022-11-10T03:26:25.132Z,51.72
2022-11-10T03:28:53.467Z,51.66
2022-11-10T03:31:23.239Z,51.70
2022-11-10T03:33:51.601Z,51.74
2022-11-10T03:36:19.953Z,51.70
2022-11-10T03:38:48.369Z,52.00
2022-11-10T03:41:19.776Z,51.62
2022-11-10T03:43:48.812Z,51.64
2022-11-10T03:46:17.255Z,51.68
2022-11-10T03:48:52.990Z,51.47
2022-11-10T03:51:22.639Z,51.48
2022-11-10T03:53:51.211Z,51.52
2022-11-10T03:56:19.625Z,51.45
2022-11-10T03:58:48.078Z,51.59
2022-11-10T04:01:16.831Z,51.51
2022-11-10T04:03:51.259Z,51.55
2022-11-10T04:06:37.734Z,51.54
2022-11-10T04:09:07.861Z,51.48
2022-11-10T04:11:53.616Z,51.33
2022-11-10T04:14:39.287Z,51.60
2022-11-10T04:17:07.676Z,51.60
2022-11-10T04:19:37.574Z,51.55
2022-11-10T04:22:06.003Z,51.71
2022-11-10T04:24:34.375Z,51.60
2022-11-10T04:27:02.707Z,51.56
2022-11-10T04:29:31.043Z,51.61
2022-11-10T04:31:59.406Z,51.62
2022-11-10T04:34:27.757Z,51.67
2022-11-10T04:36:57.458Z,51.61
2022-11-10T04:39:25.835Z,51.61
2022-11-10T04:41:57.148Z,51.50
2022-11-10T04:44:28.139Z,51.61
2022-11-10T04:46:56.506Z,51.54
2022-11-10T04:49:25.166Z,51.41
2022-11-10T04:51:53.538Z,51.54
2022-11-10T04:54:23.265Z,51.48
2022-11-10T04:56:51.637Z,51.55
2022-11-10T04:59:20.152Z,51.44
2022-11-10T05:01:48.508Z,51.44
2022-11-10T05:04:16.867Z,51.34
2022-11-10T05:06:45.451Z,51.18
2022-11-10T05:09:14.008Z,51.12
2022-11-10T05:11:43.690Z,51.15
2022-11-10T05:14:12.482Z,51.21
2022-11-10T05:16:40.822Z,51.22
2022-11-10T05:19:09.856Z,51.13
2022-11-10T05:21:38.192Z,51.24
2022-11-10T05:24:07.210Z,51.24
2022-11-10T05:26:35.615Z,51.08
2022-11-10T05:29:05.335Z,51.30
2022-11-10T05:31:33.706Z,50.98
2022-11-10T05:34:02.114Z,51.10
2022-11-10T05:36:30.488Z,51.13
2022-11-10T05:38:58.838Z,51.06
2022-11-10T05:41:27.189Z,51.22
2022-11-10T05:43:55.551Z,51.13
2022-11-10T05:46:25.835Z,51.17
2022-11-10T05:48:54.183Z,51.08
2022-11-10T05:51:22.518Z,51.07
2022-11-10T05:53:50.916Z,51.12
2022-11-10T05:56:19.301Z,51.13
2022-11-10T05:58:47.644Z,51.17
2022-11-10T06:01:16.071Z,51.28
2022-11-10T06:03:45.904Z,51.34
2022-11-10T06:06:14.310Z,51.56
2022-11-10T06:08:42.724Z,51.59
2022-11-10T06:11:11.069Z,51.70
2022-11-10T06:13:39.389Z,51.67
2022-11-10T06:16:08.204Z,51.88
2022-11-10T06:18:36.595Z,51.86
2022-11-10T06:21:06.749Z,52.08
2022-11-10T06:23:35.084Z,51.92
2022-11-10T06:26:03.436Z,52.05
2022-11-10T06:28:31.818Z,52.35
2022-11-10T06:31:00.168Z,52.11
2022-11-10T06:33:28.558Z,52.01
2022-11-10T06:35:56.888Z,52.25
2022-11-10T06:38:26.671Z,52.25
2022-11-10T06:40:55.026Z,52.20
2022-11-10T06:43:23.633Z,52.09
2022-11-10T06:45:52.283Z,52.27
2022-11-10T06:48:20.826Z,52.28
2022-11-10T06:50:49.246Z,52.39
2022-11-10T06:53:21.732Z,52.18
2022-11-10T06:55:54.119Z,52.35
2022-11-10T06:58:22.485Z,52.38
2022-11-10T07:00:51.016Z,52.63
2022-11-10T07:03:19.668Z,52.40
2022-11-10T07:05:48.262Z,52.66
2022-11-10T07:08:17.544Z,52.57
2022-11-10T07:10:52.169Z,52.46
2022-11-10T07:13:22.505Z,52.43
2022-11-10T07:15:51.691Z,52.49
2022-11-10T07:18:20.375Z,52.46
2022-11-10T07:20:48.963Z,52.47
2022-11-10T07:23:17.360Z,52.23
2022-11-10T07:25:45.735Z,52.34
2022-11-10T07:28:14.169Z,52.47
2022-11-10T07:30:43.951Z,52.35
2022-11-10T07:33:15.080Z,52.27
2022-11-10T07:35:43.562Z,52.21
2022-11-10T07:38:14.759Z,52.12
2022-11-10T07:40:43.197Z,52.32
2022-11-10T07:43:11.568Z,52.36
2022-11-10T07:45:39.945Z,52.09
2022-11-10T07:48:10.655Z,52.06
2022-11-10T07:50:39.062Z,52.17
2022-11-10T07:53:10.545Z,51.74
2022-11-10T07:55:40.892Z,51.92
2022-11-10T07:58:10.322Z,51.89
2022-11-10T08:00:39.888Z,51.87
2022-11-10T08:03:12.865Z,51.72
2022-11-10T08:05:41.432Z,51.73
2022-11-10T08:08:10.308Z,51.70
2022-11-10T08:10:39.871Z,51.73
2022-11-10T08:13:11.613Z,51.86
2022-11-10T08:15:41.597Z,51.48
2022-11-10T08:18:19.116Z,51.43
2022-11-10T08:20:48.703Z,51.60
2022-11-10T08:23:18.042Z,51.58
2022-11-10T08:25:48.063Z,51.57
2022-11-10T08:28:19.596Z,51.54
2022-11-10T08:30:49.817Z,51.39
2022-11-10T08:33:21.930Z,51.54
2022-11-10T08:35:52.802Z,51.60
2022-11-10T08:38:24.424Z,51.46
2022-11-10T08:40:53.383Z,51.56
2022-11-10T08:43:21.958Z,51.53
2022-11-10T08:45:50.609Z,51.48
2022-11-10T08:48:21.824Z,51.20
2022-11-10T08:50:50.790Z,51.20
2022-11-10T08:53:21.750Z,50.94
2022-11-10T08:55:51.386Z,50.77
2022-11-10T08:58:23.412Z,50.32
2022-11-10T09:00:52.726Z,50.19
2022-11-10T09:03:25.863Z,50.15
2022-11-10T09:05:58.245Z,49.94
2022-11-10T09:08:27.110Z,50.03
2022-11-10T09:10:56.083Z,50.17
2022-11-10T09:13:29.434Z,49.70
2022-11-10T09:16:02.201Z,49.60
2022-11-10T09:18:32.598Z,49.66
2022-11-10T09:21:01.093Z,49.65
2022-11-10T09:23:29.562Z,49.58
2022-11-10T09:25:58.375Z,49.61
2022-11-10T09:28:26.843Z,49.70
2022-11-10T09:30:55.318Z,49.70
2022-11-10T09:33:24.134Z,49.58
2022-11-10T09:35:59.906Z,49.34
2022-11-10T09:38:28.346Z,48.92
2022-11-10T09:41:03.488Z,48.83
2022-11-10T09:43:40.781Z,48.77
2022-11-10T09:46:17.420Z,48.51
2022-11-10T09:48:51.942Z,48.70
2022-11-10T09:51:26.997Z,48.41
2022-11-10T09:53:59.849Z,48.26
2022-11-10T09:56:34.206Z,48.09
2022-11-10T09:59:08.446Z,48.15
2022-11-10T10:01:45.213Z,47.83
2022-11-10T10:04:31.959Z,47.75
2022-11-10T10:07:11.386Z,47.57
2022-11-10T10:09:53.978Z,47.48
2022-11-10T10:12:46.925Z,47.30
2022-11-10T10:15:28.576Z,46.76
2022-11-10T10:18:20.641Z,46.44
2022-11-10T10:21:11.805Z,46.50
2022-11-10T10:26:42.557Z,46.66
2022-11-10T10:29:17.908Z,46.96
2022-11-10T10:31:51.442Z,47.08
2022-11-10T10:34:23.178Z,47.13
2022-11-10T10:36:51.744Z,46.97
2022-11-10T10:39:30.956Z,47.25
2022-11-10T10:41:59.759Z,47.26
2022-11-10T10:44:28.450Z,47.35
2022-11-10T10:47:00.239Z,47.00
2022-11-10T10:49:31.369Z,47.00
2022-11-10T10:52:11.625Z,47.26
2022-11-10T10:54:41.986Z,47.33
2022-11-10T10:57:23.683Z,47.38
2022-11-10T10:59:52.668Z,47.26
2022-11-10T11:02:28.088Z,47.44
2022-11-10T11:05:15.345Z,47.68
2022-11-10T11:07:55.350Z,47.44
2022-11-10T11:10:30.146Z,47.12
2022-11-10T11:13:16.112Z,47.16
2022-11-10T11:15:57.663Z,47.49
2022-11-10T11:18:28.440Z,47.46
2022-11-10T11:21:03.782Z,47.63
2022-11-10T11:24:10.702Z,47.60
2022-11-10T11:26:53.709Z,47.64
2022-11-10T11:29:47.719Z,47.51
2022-11-10T11:32:33.668Z,47.68
2022-11-10T11:35:17.110Z,47.75
2022-11-10T11:37:56.407Z,47.83
2022-11-10T11:40:34.972Z,47.83
2022-11-10T11:43:20.346Z,47.82
2022-11-10T11:45:56.484Z,47.83
2022-11-10T11:48:44.679Z,47.77
2022-11-10T11:51:22.416Z,47.59
2022-11-10T11:54:25.143Z,47.74
2022-11-10T11:56:56.106Z,47.70
2022-11-10T11:59:45.409Z,47.60
2022-11-10T12:02:35.521Z,47.56
2022-11-10T12:05:21.075Z,47.44
2022-11-10T12:08:03.071Z,47.21
2022-11-10T12:10:45.606Z,47.47
2022-11-10T12:13:46.860Z,47.37
2022-11-10T12:16:23.399Z,46.96
2022-11-10T12:19:08.697Z,46.90
2022-11-10T12:21:47.029Z,47.19
2022-11-10T12:24:54.118Z,46.98
2022-11-10T12:27:29.710Z,46.85
2022-11-10T12:30:03.389Z,46.88
2022-11-10T12:32:42.067Z,46.62
2022-11-10T12:35:20.671Z,46.49
2022-11-10T12:37:55.073Z,46.53
2022-11-10T12:40:27.063Z,46.21
2022-11-10T12:43:00.579Z,46.35
2022-11-10T12:45:34.354Z,46.44
2022-11-10T12:48:06.543Z,46.58
2022-11-10T12:50:46.283Z,46.77
2022-11-10T12:53:22.995Z,46.65
2022-11-10T12:55:57.128Z,46.54
2022-11-10T12:58:26.845Z,46.01
2022-11-10T13:01:02.086Z,46.00
2022-11-10T13:03:35.277Z,45.97
2022-11-10T13:06:06.101Z,45.95
2022-11-10T13:08:39.200Z,46.00
2022-11-10T13:11:27.530Z,46.14
2022-11-10T13:14:00.230Z,46.04
2022-11-10T13:16:54.667Z,46.21
2022-11-10T13:20:20.838Z,46.19
2022-11-10T13:22:51.257Z,46.14
2022-11-10T13:25:56.620Z,46.28
2022-11-10T13:29:20.008Z,46.49
2022-11-10T13:31:58.697Z,46.41
2022-11-10T13:34:35.553Z,46.57
2022-11-10T13:37:42.555Z,46.72
2022-11-10T13:40:35.949Z,46.63
2022-11-10T13:43:27.811Z,46.58
2022-11-10T13:46:06.659Z,46.62
2022-11-10T13:49:22.967Z,46.74
2022-11-10T13:52:06.414Z,46.60
2022-11-10T13:55:15.982Z,46.68
2022-11-10T13:58:02.064Z,46.68
2022-11-10T14:00:33.826Z,46.73
2022-11-10T14:03:03.691Z,46.56
2022-11-10T14:06:10.867Z,46.67
2022-11-10T14:08:51.914Z,46.63
2022-11-10T14:11:29.302Z,46.66
2022-11-10T14:14:04.107Z,46.81
2022-11-10T14:16:39.228Z,46.80
2022-11-10T14:19:25.840Z,46.83
2022-11-10T14:21:58.660Z,46.93
2022-11-10T14:24:31.759Z,46.86
2022-11-10T14:27:07.339Z,47.14
2022-11-10T14:29:40.025Z,47.22
2022-11-10T14:32:20.568Z,47.22
2022-11-10T14:34:56.692Z,47.35
2022-11-10T14:37:28.128Z,47.55
2022-11-10T14:39:59.187Z,47.60
2022-11-10T14:42:35.366Z,47.54
2022-11-10T14:45:19.163Z,47.69
2022-11-10T14:47:58.068Z,47.85
2022-11-10T14:50:29.165Z,47.78
2022-11-10T14:53:03.055Z,47.79
2022-11-10T14:55:36.326Z,48.09
2022-11-10T14:58:12.688Z,47.96
2022-11-10T15:00:43.413Z,47.96
2022-11-10T15:03:19.323Z,48.16
2022-11-10T15:05:48.235Z,48.25
2022-11-10T15:08:17.209Z,48.24
2022-11-10T15:10:48.795Z,48.32
2022-11-10T15:13:36.253Z,48.38
2022-11-10T15:16:28.416Z,48.32
2022-11-10T15:18:58.485Z,48.33
2022-11-10T15:21:34.211Z,48.54
2022-11-10T15:24:06.943Z,48.38
2022-11-10T15:26:40.318Z,48.48
2022-11-10T15:29:21.367Z,48.63
2022-11-10T15:31:51.133Z,48.41
2022-11-10T15:34:41.793Z,48.56
2022-11-10T15:37:30.009Z,48.43
2022-11-10T15:40:37.126Z,48.62
2022-11-10T15:43:15.320Z,48.79
2022-11-10T15:45:47.748Z,48.67
2022-11-10T15:48:19.400Z,49.04
2022-11-10T15:50:51.650Z,48.84
2022-11-10T15:53:31.327Z,49.21
2022-11-10T15:55:59.715Z,48.91
2022-11-10T15:58:29.619Z,48.93
2022-11-10T16:00:59.463Z,48.92
2022-11-10T16:03:28.400Z,49.02
2022-11-10T16:05:56.778Z,49.00
2022-11-10T16:08:26.242Z,49.11
2022-11-10T16:10:57.684Z,49.20
2022-11-10T16:13:30.558Z,49.21
2022-11-10T16:16:01.610Z,49.33
2022-11-10T16:18:31.779Z,49.32
2022-11-10T16:21:00.194Z,49.42
2022-11-10T16:23:28.679Z,49.26
2022-11-10T16:25:58.373Z,49.48
2022-11-10T16:28:28.865Z,49.04
2022-11-10T16:30:57.628Z,49.10
2022-11-10T16:33:29.224Z,48.99
2022-11-10T16:35:57.968Z,48.88
2022-11-10T16:38:29.462Z,49.00
2022-11-10T16:40:59.995Z,49.01
2022-11-10T16:43:29.509Z,49.16
2022-11-10T16:46:01.247Z,49.23
2022-11-10T16:48:35.412Z,49.24
2022-11-10T16:51:04.113Z,49.24
2022-11-10T16:53:33.711Z,49.42
2022-11-10T16:56:02.494Z,49.54
2022-11-10T16:58:31.612Z,49.49
2022-11-10T17:01:02.815Z,49.50
2022-11-10T17:03:36.031Z,49.43
2022-11-10T17:06:05.624Z,49.59
2022-11-10T17:08:36.711Z,49.48
2022-11-10T17:11:07.029Z,49.57
2022-11-10T17:13:35.685Z,49.51
2022-11-10T17:16:08.464Z,49.59
2022-11-10T17:18:39.146Z,49.40
2022-11-10T17:21:08.748Z,49.75
2022-11-10T17:23:37.544Z,49.81
2022-11-10T17:26:06.575Z,49.58
2022-11-10T17:28:35.564Z,49.67
2022-11-10T17:31:05.503Z,49.83
2022-11-10T17:33:34.392Z,49.80
2022-11-10T17:36:06.192Z,49.80
2022-11-10T17:38:35.835Z,49.57
2022-11-10T17:41:04.901Z,49.83
2022-11-10T17:43:33.645Z,49.63
2022-11-10T17:46:02.198Z,49.94
2022-11-10T17:48:31.298Z,49.88
2022-11-10T17:51:00.245Z,50.04
2022-11-10T17:53:31.290Z,50.29
2022-11-10T17:56:00.236Z,50.04
2022-11-10T17:58:30.857Z,50.13
2022-11-10T18:01:01.049Z,50.23
2022-11-10T18:03:30.882Z,50.27
2022-11-10T18:06:01.229Z,50.23
2022-11-10T18:08:33.473Z,50.26
2022-11-10T18:11:03.396Z,50.25
2022-11-10T18:13:32.323Z,50.21
2022-11-10T18:16:01.668Z,50.38
2022-11-10T18:18:31.086Z,50.22
2022-11-10T18:20:59.918Z,50.54
2022-11-10T18:23:32.099Z,50.47
2022-11-10T18:26:06.436Z,50.56
2022-11-10T18:28:38.406Z,50.50
2022-11-10T18:31:11.151Z,50.58
2022-11-10T18:33:42.253Z,50.67
2022-11-10T18:36:14.886Z,50.64
2022-11-10T18:38:46.531Z,50.62
2022-11-10T18:41:34.661Z,50.73
2022-11-10T18:44:03.813Z,50.70
2022-11-10T18:46:35.411Z,50.40
2022-11-10T18:49:06.682Z,50.59
2022-11-10T18:51:36.566Z,50.67
2022-11-10T18:54:08.081Z,50.51
2022-11-10T18:56:37.762Z,50.64
2022-11-10T18:59:07.564Z,50.56
2022-11-10T19:01:39.274Z,50.53
2022-11-10T19:04:08.755Z,50.48
2022-11-10T19:06:38.710Z,50.35
2022-11-10T19:09:09.975Z,50.56
2022-11-10T19:11:39.817Z,50.30
2022-11-10T19:14:09.045Z,50.54
2022-11-10T19:16:40.288Z,50.53
2022-11-10T19:19:13.099Z,50.51
2022-11-10T19:21:43.328Z,50.55
2022-11-10T19:24:25.820Z,50.47
2022-11-10T19:26:57.755Z,50.58
2022-11-10T19:29:28.344Z,50.56
2022-11-10T19:31:57.531Z,50.47
2022-11-10T19:34:27.117Z,50.65
2022-11-10T19:36:59.393Z,50.61
2022-11-10T19:39:33.149Z,50.61
2022-11-10T19:42:11.263Z,50.57
2022-11-10T19:44:41.139Z,50.70
2022-11-10T19:47:11.744Z,50.70
2022-11-10T19:49:41.508Z,50.70
2022-11-10T19:52:12.035Z,50.93
2022-11-10T19:54:44.826Z,50.64
2022-11-10T19:57:14.491Z,50.88
2022-11-10T19:59:45.224Z,50.74
2022-11-10T20:02:16.375Z,51.03
2022-11-10T20:05:04.709Z,50.89
2022-11-10T20:07:51.374Z,50.84
2022-11-10T20:10:22.312Z,51.09
2022-11-10T20:12:52.139Z,50.93
2022-11-10T20:15:21.934Z,51.01
2022-11-10T20:17:51.900Z,50.87
2022-11-10T20:20:22.697Z,51.06
2022-11-10T20:22:55.737Z,51.04
2022-11-10T20:25:26.754Z,50.99
2022-11-10T20:27:56.232Z,50.96
2022-11-10T20:30:26.540Z,50.98
2022-11-10T20:32:56.191Z,51.14
2022-11-10T20:35:25.825Z,51.22
2022-11-10T20:37:56.304Z,51.04
2022-11-10T20:40:44.061Z,51.25
2022-11-10T20:43:15.332Z,51.25
2022-11-10T20:45:44.877Z,51.36
2022-11-10T20:48:15.933Z,51.27
2022-11-10T20:50:45.525Z,51.46
2022-11-10T20:53:15.060Z,51.44
2022-11-10T20:55:54.128Z,51.55
2022-11-10T20:58:22.943Z,51.52
2022-11-10T21:00:52.884Z,51.56
2022-11-10T21:03:22.284Z,51.52
2022-11-10T21:05:55.894Z,51.58
2022-11-10T21:08:24.725Z,51.54
2022-11-10T21:10:57.354Z,51.59
2022-11-10T21:13:26.757Z,51.52
2022-11-10T21:15:57.734Z,51.62
2022-11-10T21:18:29.790Z,51.64
2022-11-10T21:21:01.041Z,51.71
2022-11-10T21:23:30.164Z,51.66
2022-11-10T21:26:02.544Z,51.72
2022-11-10T21:28:31.094Z,51.78
2022-11-10T21:31:04.767Z,51.85
2022-11-10T21:33:33.301Z,51.58
2022-11-10T21:36:07.295Z,51.89
2022-11-10T21:38:36.004Z,51.80
2022-11-10T21:41:06.135Z,51.92
2022-11-10T21:43:34.735Z,51.95
2022-11-10T21:46:04.048Z,52.01
2022-11-10T21:48:32.437Z,52.02
2022-11-10T21:51:01.867Z,51.98
2022-11-10T21:53:30.886Z,51.99
2022-11-10T21:56:00.169Z,52.04
2022-11-10T21:58:30.221Z,52.08
2022-11-10T22:01:03.118Z,52.12
2022-11-10T22:03:32.266Z,52.02
2022-11-10T22:06:04.874Z,52.08
2022-11-10T22:08:33.914Z,52.00
2022-11-10T22:11:20.113Z,52.06
2022-11-10T22:14:07.589Z,52.18
2022-11-10T22:17:00.525Z,51.83
2022-11-10T22:19:29.038Z,52.16
2022-11-10T22:22:03.300Z,52.24
2022-11-10T22:24:33.761Z,52.26
2022-11-10T22:27:04.976Z,52.29
2022-11-10T22:29:35.203Z,52.20
2022-11-10T22:32:04.865Z,52.33
2022-11-10T22:34:33.395Z,52.38
2022-11-10T22:37:01.888Z,52.49
2022-11-10T22:39:44.502Z,52.57
2022-11-10T22:42:31.450Z,52.49
2022-11-10T22:45:01.440Z,52.61
2022-11-10T22:47:50.214Z,52.57
2022-11-10T22:50:18.655Z,52.39
2022-11-10T22:52:47.264Z,52.42
2022-11-10T22:55:16.056Z,52.52
2022-11-10T22:57:44.481Z,52.62
2022-11-10T23:00:17.202Z,52.71
2022-11-10T23:02:45.616Z,52.74
2022-11-10T23:05:14.242Z,52.79
2022-11-10T23:07:42.733Z,52.73
2022-11-10T23:10:11.506Z,52.79
2022-11-10T23:12:40.857Z,52.79
2022-11-10T23:15:10.724Z,52.85
2022-11-10T23:17:40.617Z,52.77
2022-11-10T23:20:11.004Z,52.90
2022-11-10T23:22:39.451Z,52.90
2022-11-10T23:25:09.259Z,52.69
2022-11-10T23:27:37.801Z,52.89
2022-11-10T23:30:08.079Z,52.91
2022-11-10T23:32:36.579Z,52.95
2022-11-10T23:35:07.700Z,52.81
2022-11-10T23:37:36.175Z,52.83
2022-11-10T23:40:05.832Z,52.80
2022-11-10T23:42:34.307Z,52.75
2022-11-10T23:45:02.748Z,52.71
2022-11-10T23:47:31.271Z,52.66
2022-11-10T23:49:59.756Z,52.79
2022-11-10T23:52:29.599Z,52.68
2022-11-10T23:54:58.061Z,52.78
2022-11-10T23:57:26.503Z,52.65
2022-11-10T23:59:54.962Z,52.70
